sensor_id;sensor_type;location;lat;lon;timestamp;P1;durP1;ratioP1;P2;durP2;ratioP2
15398;SDS011;7797;51.428;6.756;2022-11-14T00:01:08;6.83;;;5.63;;
15398;SDS011;7797;51.428;6.756;2022-11-14T00:03:36;6.70;;;5.90;;
15398;SDS011;7797;51.428;6.756;2022-11-14T00:06:06;6.83;;;5.97;;
15398;SDS011;7797;51.428;6.756;2022-11-14T00:08:33;7.87;;;5.87;;
15398;SDS011;7797;51.428;6.756;2022-11-14T00:11:00;8.70;;;6.07;;
15398;SDS011;7797;51.428;6.756;2022-11-14T00:13:27;6.30;;;5.47;;
15398;SDS011;7797;51.428;6.756;2022-11-14T00:15:54;7.37;;;5.60;;
15398;SDS011;7797;51.428;6.756;2022-11-14T00:18:21;6.97;;;6.00;;
15398;SDS011;7797;51.428;6.756;2022-11-14T00:20:48;6.77;;;5.60;;
15398;SDS011;7797;51.428;6.756;2022-11-14T00:23:16;6.90;;;5.37;;
15398;SDS011;7797;51.428;6.756;2022-11-14T00:25:43;7.70;;;5.47;;
15398;SDS011;7797;51.428;6.756;2022-11-14T00:28:10;6.17;;;5.53;;
15398;SDS011;7797;51.428;6.756;2022-11-14T00:30:37;5.83;;;5.23;;
15398;SDS011;7797;51.428;6.756;2022-11-14T00:33:04;6.40;;;5.60;;
15398;SDS011;7797;51.428;6.756;2022-11-14T00:35:30;8.40;;;5.47;;
15398;SDS011;7797;51.428;6.756;2022-11-14T00:37:57;5.77;;;5.27;;
15398;SDS011;7797;51.428;6.756;2022-11-14T00:40:23;6.33;;;5.70;;
15398;SDS011;7797;51.428;6.756;2022-11-14T00:42:50;6.50;;;5.70;;
15398;SDS011;7797;51.428;6.756;2022-11-14T00:45:17;6.50;;;5.70;;
15398;SDS011;7797;51.428;6.756;2022-11-14T00:47:43;5.80;;;5.30;;
15398;SDS011;7797;51.428;6.756;2022-11-14T00:50:10;5.73;;;5.23;;
15398;SDS011;7797;51.428;6.756;2022-11-14T00:52:37;6.07;;;5.47;;
15398;SDS011;7797;51.428;6.756;2022-11-14T00:55:03;6.30;;;5.70;;
15398;SDS011;7797;51.428;6.756;2022-11-14T00:57:30;6.37;;;5.70;;
15398;SDS011;7797;51.428;6.756;2022-11-14T00:59:57;5.80;;;5.30;;
15398;SDS011;7797;51.428;6.756;2022-11-14T01:02:24;6.67;;;5.83;;
15398;SDS011;7797;51.428;6.756;2022-11-14T01:04:50;5.93;;;5.33;;
15398;SDS011;7797;51.428;6.756;2022-11-14T01:07:17;6.27;;;5.67;;
15398;SDS011;7797;51.428;6.756;2022-11-14T01:09:44;6.20;;;5.40;;
15398;SDS011;7797;51.428;6.756;2022-11-14T01:12:11;6.63;;;5.93;;
15398;SDS011;7797;51.428;6.756;2022-11-14T01:14:38;6.97;;;6.00;;
15398;SDS011;7797;51.428;6.756;2022-11-14T01:17:05;7.70;;;5.83;;
15398;SDS011;7797;51.428;6.756;2022-11-14T01:19:32;8.00;;;6.17;;
15398;SDS011;7797;51.428;6.756;2022-11-14T01:21:59;5.90;;;5.40;;
15398;SDS011;7797;51.428;6.756;2022-11-14T01:24:31;6.10;;;5.60;;
15398;SDS011;7797;51.428;6.756;2022-11-14T01:26:59;6.40;;;5.50;;
15398;SDS011;7797;51.428;6.756;2022-11-14T01:29:26;6.87;;;6.23;;
15398;SDS011;7797;51.428;6.756;2022-11-14T01:31:53;6.47;;;5.87;;
15398;SDS011;7797;51.428;6.756;2022-11-14T01:34:20;6.30;;;5.70;;
15398;SDS011;7797;51.428;6.756;2022-11-14T01:36:46;7.37;;;5.97;;
15398;SDS011;7797;51.428;6.756;2022-11-14T01:39:13;6.33;;;5.70;;
15398;SDS011;7797;51.428;6.756;2022-11-14T01:41:40;6.83;;;5.70;;
15398;SDS011;7797;51.428;6.756;2022-11-14T01:44:16;7.00;;;5.83;;
15398;SDS011;7797;51.428;6.756;2022-11-14T01:47:02;8.67;;;5.80;;
15398;SDS011;7797;51.428;6.756;2022-11-14T01:49:33;5.97;;;5.40;;
15398;SDS011;7797;51.428;6.756;2022-11-14T01:52:03;6.20;;;5.60;;
15398;SDS011;7797;51.428;6.756;2022-11-14T01:54:44;6.10;;;5.50;;
15398;SDS011;7797;51.428;6.756;2022-11-14T01:57:13;7.57;;;5.57;;
15398;SDS011;7797;51.428;6.756;2022-11-14T01:59:43;6.10;;;5.50;;
15398;SDS011;7797;51.428;6.756;2022-11-14T02:02:16;7.03;;;5.60;;
15398;SDS011;7797;51.428;6.756;2022-11-14T02:04:56;6.30;;;5.70;;
15398;SDS011;7797;51.428;6.756;2022-11-14T02:07:26;6.33;;;5.67;;
15398;SDS011;7797;51.428;6.756;2022-11-14T02:09:54;7.40;;;6.00;;
15398;SDS011;7797;51.428;6.756;2022-11-14T02:12:21;6.53;;;5.97;;
15398;SDS011;7797;51.428;6.756;2022-11-14T02:14:50;7.93;;;6.20;;
15398;SDS011;7797;51.428;6.756;2022-11-14T02:17:19;7.20;;;5.90;;
15398;SDS011;7797;51.428;6.756;2022-11-14T02:22:30;7.00;;;6.30;;
15398;SDS011;7797;51.428;6.756;2022-11-14T02:24:57;7.03;;;5.60;;
15398;SDS011;7797;51.428;6.756;2022-11-14T02:27:24;7.83;;;6.60;;
15398;SDS011;7797;51.428;6.756;2022-11-14T02:29:50;6.43;;;5.83;;
15398;SDS011;7797;51.428;6.756;2022-11-14T02:32:17;6.93;;;6.17;;
15398;SDS011;7797;51.428;6.756;2022-11-14T02:34:44;8.17;;;5.93;;
15398;SDS011;7797;51.428;6.756;2022-11-14T02:37:10;6.67;;;6.03;;
15398;SDS011;7797;51.428;6.756;2022-11-14T02:39:37;7.80;;;6.23;;
15398;SDS011;7797;51.428;6.756;2022-11-14T02:42:04;7.10;;;6.40;;
15398;SDS011;7797;51.428;6.756;2022-11-14T02:44:31;7.13;;;6.37;;
15398;SDS011;7797;51.428;6.756;2022-11-14T02:46:57;6.97;;;6.23;;
15398;SDS011;7797;51.428;6.756;2022-11-14T02:49:24;7.97;;;6.57;;
15398;SDS011;7797;51.428;6.756;2022-11-14T02:51:50;8.63;;;6.10;;
15398;SDS011;7797;51.428;6.756;2022-11-14T02:54:17;8.67;;;6.00;;
15398;SDS011;7797;51.428;6.756;2022-11-14T02:56:44;6.77;;;6.07;;
15398;SDS011;7797;51.428;6.756;2022-11-14T02:59:10;9.70;;;6.17;;
15398;SDS011;7797;51.428;6.756;2022-11-14T03:01:37;7.37;;;6.67;;
15398;SDS011;7797;51.428;6.756;2022-11-14T03:04:03;8.00;;;6.43;;
15398;SDS011;7797;51.428;6.756;2022-11-14T03:06:30;7.17;;;6.53;;
15398;SDS011;7797;51.428;6.756;2022-11-14T03:08:57;6.70;;;6.07;;
15398;SDS011;7797;51.428;6.756;2022-11-14T03:11:24;6.60;;;6.00;;
15398;SDS011;7797;51.428;6.756;2022-11-14T03:13:50;6.73;;;6.17;;
15398;SDS011;7797;51.428;6.756;2022-11-14T03:16:17;7.17;;;6.40;;
15398;SDS011;7797;51.428;6.756;2022-11-14T03:18:44;6.47;;;5.87;;
15398;SDS011;7797;51.428;6.756;2022-11-14T03:21:12;8.10;;;6.60;;
15398;SDS011;7797;51.428;6.756;2022-11-14T03:23:40;8.03;;;6.23;;
15398;SDS011;7797;51.428;6.756;2022-11-14T03:26:08;7.30;;;6.47;;
15398;SDS011;7797;51.428;6.756;2022-11-14T03:28:36;6.73;;;6.03;;
15398;SDS011;7797;51.428;6.756;2022-11-14T03:31:04;6.23;;;5.63;;
15398;SDS011;7797;51.428;6.756;2022-11-14T03:33:31;7.57;;;6.27;;
15398;SDS011;7797;51.428;6.756;2022-11-14T03:35:58;7.27;;;5.80;;
15398;SDS011;7797;51.428;6.756;2022-11-14T03:38:25;8.60;;;6.20;;
15398;SDS011;7797;51.428;6.756;2022-11-14T03:40:52;7.67;;;6.20;;
15398;SDS011;7797;51.428;6.756;2022-11-14T03:43:19;7.40;;;6.57;;
15398;SDS011;7797;51.428;6.756;2022-11-14T03:45:47;7.10;;;6.30;;
15398;SDS011;7797;51.428;6.756;2022-11-14T03:48:13;6.40;;;5.73;;
15398;SDS011;7797;51.428;6.756;2022-11-14T03:50:41;7.13;;;5.90;;
15398;SDS011;7797;51.428;6.756;2022-11-14T03:53:08;7.90;;;6.10;;
15398;SDS011;7797;51.428;6.756;2022-11-14T03:55:35;7.47;;;6.30;;
15398;SDS011;7797;51.428;6.756;2022-11-14T03:58:02;7.63;;;6.23;;
15398;SDS011;7797;51.428;6.756;2022-11-14T04:00:28;7.73;;;6.07;;
15398;SDS011;7797;51.428;6.756;2022-11-14T04:02:55;7.10;;;6.23;;
15398;SDS011;7797;51.428;6.756;2022-11-14T04:05:22;7.13;;;6.37;;
15398;SDS011;7797;51.428;6.756;2022-11-14T04:07:49;6.70;;;6.00;;
15398;SDS011;7797;51.428;6.756;2022-11-14T04:10:16;6.63;;;5.80;;
15398;SDS011;7797;51.428;6.756;2022-11-14T04:12:50;5.93;;;5.40;;
15398;SDS011;7797;51.428;6.756;2022-11-14T04:15:18;8.27;;;6.00;;
15398;SDS011;7797;51.428;6.756;2022-11-14T04:17:45;6.30;;;5.60;;
15398;SDS011;7797;51.428;6.756;2022-11-14T04:20:12;7.03;;;6.20;;
15398;SDS011;7797;51.428;6.756;2022-11-14T04:22:45;8.03;;;6.30;;
15398;SDS011;7797;51.428;6.756;2022-11-14T04:25:12;6.53;;;5.93;;
15398;SDS011;7797;51.428;6.756;2022-11-14T04:27:39;6.40;;;5.67;;
15398;SDS011;7797;51.428;6.756;2022-11-14T04:30:05;8.47;;;6.30;;
15398;SDS011;7797;51.428;6.756;2022-11-14T04:32:33;6.80;;;6.10;;
15398;SDS011;7797;51.428;6.756;2022-11-14T04:34:59;8.00;;;6.37;;
15398;SDS011;7797;51.428;6.756;2022-11-14T04:37:26;7.20;;;6.13;;
15398;SDS011;7797;51.428;6.756;2022-11-14T04:39:53;6.67;;;5.60;;
15398;SDS011;7797;51.428;6.756;2022-11-14T04:42:24;7.23;;;6.53;;
15398;SDS011;7797;51.428;6.756;2022-11-14T04:44:51;6.50;;;5.80;;
15398;SDS011;7797;51.428;6.756;2022-11-14T04:47:18;7.37;;;5.93;;
15398;SDS011;7797;51.428;6.756;2022-11-14T04:49:44;6.03;;;5.43;;
15398;SDS011;7797;51.428;6.756;2022-11-14T04:52:11;6.30;;;5.70;;
15398;SDS011;7797;51.428;6.756;2022-11-14T04:54:37;8.30;;;5.70;;
15398;SDS011;7797;51.428;6.756;2022-11-14T04:57:04;8.47;;;5.67;;
15398;SDS011;7797;51.428;6.756;2022-11-14T04:59:31;5.70;;;5.20;;
15398;SDS011;7797;51.428;6.756;2022-11-14T05:01:57;6.57;;;5.97;;
15398;SDS011;7797;51.428;6.756;2022-11-14T05:04:24;6.80;;;5.27;;
15398;SDS011;7797;51.428;6.756;2022-11-14T05:06:51;7.10;;;6.40;;
15398;SDS011;7797;51.428;6.756;2022-11-14T05:09:17;6.20;;;5.37;;
15398;SDS011;7797;51.428;6.756;2022-11-14T05:11:44;6.10;;;5.50;;
15398;SDS011;7797;51.428;6.756;2022-11-14T05:14:11;6.33;;;5.73;;
15398;SDS011;7797;51.428;6.756;2022-11-14T05:16:38;6.30;;;5.63;;
15398;SDS011;7797;51.428;6.756;2022-11-14T05:19:04;5.90;;;5.30;;
15398;SDS011;7797;51.428;6.756;2022-11-14T05:21:36;6.23;;;5.47;;
15398;SDS011;7797;51.428;6.756;2022-11-14T05:24:02;6.93;;;5.40;;
15398;SDS011;7797;51.428;6.756;2022-11-14T05:26:29;7.23;;;5.40;;
15398;SDS011;7797;51.428;6.756;2022-11-14T05:28:56;6.00;;;5.27;;
15398;SDS011;7797;51.428;6.756;2022-11-14T05:31:22;7.53;;;5.30;;
15398;SDS011;7797;51.428;6.756;2022-11-14T05:33:49;5.60;;;5.10;;
15398;SDS011;7797;51.428;6.756;2022-11-14T05:36:16;5.63;;;5.13;;
15398;SDS011;7797;51.428;6.756;2022-11-14T05:38:43;5.57;;;5.07;;
15398;SDS011;7797;51.428;6.756;2022-11-14T05:41:14;8.77;;;5.53;;
15398;SDS011;7797;51.428;6.756;2022-11-14T05:43:42;6.07;;;5.07;;
15398;SDS011;7797;51.428;6.756;2022-11-14T05:46:10;6.10;;;5.40;;
15398;SDS011;7797;51.428;6.756;2022-11-14T05:48:37;6.10;;;5.13;;
15398;SDS011;7797;51.428;6.756;2022-11-14T05:51:04;5.90;;;5.40;;
15398;SDS011;7797;51.428;6.756;2022-11-14T05:53:32;5.67;;;5.17;;
15398;SDS011;7797;51.428;6.756;2022-11-14T05:56:04;6.43;;;5.67;;
15398;SDS011;7797;51.428;6.756;2022-11-14T05:58:32;6.17;;;5.10;;
15398;SDS011;7797;51.428;6.756;2022-11-14T06:01:07;6.10;;;5.47;;
15398;SDS011;7797;51.428;6.756;2022-11-14T06:03:42;6.60;;;5.70;;
15398;SDS011;7797;51.428;6.756;2022-11-14T06:06:11;5.70;;;5.17;;
15398;SDS011;7797;51.428;6.756;2022-11-14T06:08:42;9.70;;;5.73;;
15398;SDS011;7797;51.428;6.756;2022-11-14T06:11:10;7.83;;;5.70;;
15398;SDS011;7797;51.428;6.756;2022-11-14T06:13:38;7.87;;;5.73;;
15398;SDS011;7797;51.428;6.756;2022-11-14T06:16:06;7.83;;;5.60;;
15398;SDS011;7797;51.428;6.756;2022-11-14T06:18:34;6.57;;;5.23;;
15398;SDS011;7797;51.428;6.756;2022-11-14T06:21:02;7.80;;;5.60;;
15398;SDS011;7797;51.428;6.756;2022-11-14T06:23:39;6.20;;;5.60;;
15398;SDS011;7797;51.428;6.756;2022-11-14T06:26:07;6.83;;;5.80;;
15398;SDS011;7797;51.428;6.756;2022-11-14T06:28:46;8.77;;;5.67;;
15398;SDS011;7797;51.428;6.756;2022-11-14T06:31:12;7.00;;;6.30;;
15398;SDS011;7797;51.428;6.756;2022-11-14T06:33:39;6.70;;;5.83;;
15398;SDS011;7797;51.428;6.756;2022-11-14T06:36:06;8.90;;;6.30;;
15398;SDS011;7797;51.428;6.756;2022-11-14T06:38:34;8.80;;;5.80;;
15398;SDS011;7797;51.428;6.756;2022-11-14T06:41:03;7.30;;;6.00;;
15398;SDS011;7797;51.428;6.756;2022-11-14T06:43:38;6.93;;;6.30;;
15398;SDS011;7797;51.428;6.756;2022-11-14T06:46:06;7.37;;;6.47;;
15398;SDS011;7797;51.428;6.756;2022-11-14T06:48:34;9.10;;;6.60;;
15398;SDS011;7797;51.428;6.756;2022-11-14T06:51:02;9.10;;;6.70;;
15398;SDS011;7797;51.428;6.756;2022-11-14T06:53:30;8.33;;;6.23;;
15398;SDS011;7797;51.428;6.756;2022-11-14T06:56:05;8.87;;;6.47;;
15398;SDS011;7797;51.428;6.756;2022-11-14T06:58:33;9.97;;;6.57;;
15398;SDS011;7797;51.428;6.756;2022-11-14T07:01:09;9.60;;;6.53;;
15398;SDS011;7797;51.428;6.756;2022-11-14T07:03:40;7.67;;;6.00;;
15398;SDS011;7797;51.428;6.756;2022-11-14T07:06:08;7.23;;;6.47;;
15398;SDS011;7797;51.428;6.756;2022-11-14T07:08:37;10.90;;;6.40;;
15398;SDS011;7797;51.428;6.756;2022-11-14T07:11:04;10.00;;;6.70;;
15398;SDS011;7797;51.428;6.756;2022-11-14T07:13:38;8.67;;;6.57;;
15398;SDS011;7797;51.428;6.756;2022-11-14T07:16:05;8.87;;;6.30;;
15398;SDS011;7797;51.428;6.756;2022-11-14T07:18:32;8.13;;;6.53;;
15398;SDS011;7797;51.428;6.756;2022-11-14T07:21:00;8.37;;;6.50;;
15398;SDS011;7797;51.428;6.756;2022-11-14T07:23:29;8.37;;;6.57;;
15398;SDS011;7797;51.428;6.756;2022-11-14T07:26:03;10.83;;;6.43;;
15398;SDS011;7797;51.428;6.756;2022-11-14T07:28:34;8.13;;;6.27;;
15398;SDS011;7797;51.428;6.756;2022-11-14T07:31:02;10.13;;;7.17;;
15398;SDS011;7797;51.428;6.756;2022-11-14T07:33:35;8.13;;;6.63;;
15398;SDS011;7797;51.428;6.756;2022-11-14T07:36:02;10.27;;;6.20;;
15398;SDS011;7797;51.428;6.756;2022-11-14T07:38:29;7.23;;;6.07;;
15398;SDS011;7797;51.428;6.756;2022-11-14T07:40:58;9.73;;;6.03;;
15398;SDS011;7797;51.428;6.756;2022-11-14T07:43:28;8.53;;;6.03;;
15398;SDS011;7797;51.428;6.756;2022-11-14T07:45:59;7.93;;;6.77;;
15398;SDS011;7797;51.428;6.756;2022-11-14T07:48:27;6.67;;;5.93;;
15398;SDS011;7797;51.428;6.756;2022-11-14T07:50:58;9.43;;;6.33;;
15398;SDS011;7797;51.428;6.756;2022-11-14T07:53:26;7.17;;;6.47;;
15398;SDS011;7797;51.428;6.756;2022-11-14T07:55:53;6.43;;;5.83;;
15398;SDS011;7797;51.428;6.756;2022-11-14T07:58:20;9.73;;;6.87;;
15398;SDS011;7797;51.428;6.756;2022-11-14T08:00:46;7.90;;;7.10;;
15398;SDS011;7797;51.428;6.756;2022-11-14T08:03:16;8.57;;;5.97;;
15398;SDS011;7797;51.428;6.756;2022-11-14T08:05:46;10.13;;;6.50;;
15398;SDS011;7797;51.428;6.756;2022-11-14T08:08:14;7.33;;;6.50;;
15398;SDS011;7797;51.428;6.756;2022-11-14T08:10:42;8.80;;;6.70;;
15398;SDS011;7797;51.428;6.756;2022-11-14T08:13:09;7.53;;;6.73;;
15398;SDS011;7797;51.428;6.756;2022-11-14T08:15:56;7.00;;;6.30;;
15398;SDS011;7797;51.428;6.756;2022-11-14T08:18:25;8.60;;;6.77;;
15398;SDS011;7797;51.428;6.756;2022-11-14T08:20:52;7.80;;;6.53;;
15398;SDS011;7797;51.428;6.756;2022-11-14T08:23:19;8.43;;;7.47;;
15398;SDS011;7797;51.428;6.756;2022-11-14T08:25:46;8.97;;;7.53;;
15398;SDS011;7797;51.428;6.756;2022-11-14T08:28:12;11.83;;;8.07;;
15398;SDS011;7797;51.428;6.756;2022-11-14T08:30:39;10.40;;;8.30;;
15398;SDS011;7797;51.428;6.756;2022-11-14T08:33:06;10.70;;;8.33;;
15398;SDS011;7797;51.428;6.756;2022-11-14T08:35:33;10.40;;;8.73;;
15398;SDS011;7797;51.428;6.756;2022-11-14T08:38:00;11.33;;;8.77;;
15398;SDS011;7797;51.428;6.756;2022-11-14T08:40:28;10.50;;;9.13;;
15398;SDS011;7797;51.428;6.756;2022-11-14T08:43:01;11.60;;;8.83;;
15398;SDS011;7797;51.428;6.756;2022-11-14T08:45:30;12.47;;;9.70;;
15398;SDS011;7797;51.428;6.756;2022-11-14T08:47:57;15.17;;;9.73;;
15398;SDS011;7797;51.428;6.756;2022-11-14T08:50:25;13.03;;;9.80;;
15398;SDS011;7797;51.428;6.756;2022-11-14T08:52:52;15.37;;;10.93;;
15398;SDS011;7797;51.428;6.756;2022-11-14T08:55:19;13.80;;;9.87;;
15398;SDS011;7797;51.428;6.756;2022-11-14T08:57:46;14.80;;;11.13;;
15398;SDS011;7797;51.428;6.756;2022-11-14T09:00:15;14.23;;;10.27;;
15398;SDS011;7797;51.428;6.756;2022-11-14T09:02:42;15.00;;;10.43;;
15398;SDS011;7797;51.428;6.756;2022-11-14T09:05:09;14.80;;;10.60;;
15398;SDS011;7797;51.428;6.756;2022-11-14T09:07:36;14.30;;;10.30;;
15398;SDS011;7797;51.428;6.756;2022-11-14T09:10:03;15.07;;;10.73;;
15398;SDS011;7797;51.428;6.756;2022-11-14T09:12:30;14.37;;;10.00;;
15398;SDS011;7797;51.428;6.756;2022-11-14T09:14:57;15.83;;;10.93;;
15398;SDS011;7797;51.428;6.756;2022-11-14T09:17:24;14.57;;;11.37;;
15398;SDS011;7797;51.428;6.756;2022-11-14T09:19:50;16.57;;;11.13;;
15398;SDS011;7797;51.428;6.756;2022-11-14T09:22:17;16.13;;;11.47;;
15398;SDS011;7797;51.428;6.756;2022-11-14T09:24:44;15.67;;;11.10;;
15398;SDS011;7797;51.428;6.756;2022-11-14T09:27:17;16.80;;;11.33;;
15398;SDS011;7797;51.428;6.756;2022-11-14T09:29:44;17.03;;;12.10;;
15398;SDS011;7797;51.428;6.756;2022-11-14T09:32:16;17.80;;;10.90;;
15398;SDS011;7797;51.428;6.756;2022-11-14T09:34:43;16.37;;;11.70;;
15398;SDS011;7797;51.428;6.756;2022-11-14T09:37:11;17.47;;;11.67;;
15398;SDS011;7797;51.428;6.756;2022-11-14T09:39:38;18.33;;;12.23;;
15398;SDS011;7797;51.428;6.756;2022-11-14T09:42:13;16.40;;;12.13;;
15398;SDS011;7797;51.428;6.756;2022-11-14T09:44:48;18.73;;;11.90;;
15398;SDS011;7797;51.428;6.756;2022-11-14T09:47:28;17.80;;;11.77;;
15398;SDS011;7797;51.428;6.756;2022-11-14T09:50:06;16.53;;;12.50;;
15398;SDS011;7797;51.428;6.756;2022-11-14T09:52:41;19.63;;;12.27;;
15398;SDS011;7797;51.428;6.756;2022-11-14T09:55:12;16.90;;;11.63;;
15398;SDS011;7797;51.428;6.756;2022-11-14T09:57:40;17.17;;;11.83;;
15398;SDS011;7797;51.428;6.756;2022-11-14T10:08:13;16.97;;;11.93;;
15398;SDS011;7797;51.428;6.756;2022-11-14T10:10:57;16.73;;;11.97;;
15398;SDS011;7797;51.428;6.756;2022-11-14T10:24:26;18.13;;;12.80;;
15398;SDS011;7797;51.428;6.756;2022-11-14T10:27:06;16.93;;;10.80;;
15398;SDS011;7797;51.428;6.756;2022-11-14T10:41:33;14.37;;;9.33;;
15398;SDS011;7797;51.428;6.756;2022-11-14T10:44:25;13.37;;;8.83;;
15398;SDS011;7797;51.428;6.756;2022-11-14T10:47:05;11.07;;;8.03;;
15398;SDS011;7797;51.428;6.756;2022-11-14T10:49:43;11.90;;;8.67;;
15398;SDS011;7797;51.428;6.756;2022-11-14T10:52:34;10.37;;;8.30;;
15398;SDS011;7797;51.428;6.756;2022-11-14T10:55:05;10.73;;;8.27;;
15398;SDS011;7797;51.428;6.756;2022-11-14T10:57:35;10.93;;;7.70;;
15398;SDS011;7797;51.428;6.756;2022-11-14T11:00:05;9.90;;;6.70;;
15398;SDS011;7797;51.428;6.756;2022-11-14T11:02:49;10.73;;;6.57;;
15398;SDS011;7797;51.428;6.756;2022-11-14T11:05:19;9.10;;;6.73;;
15398;SDS011;7797;51.428;6.756;2022-11-14T11:11:17;8.80;;;6.03;;
15398;SDS011;7797;51.428;6.756;2022-11-14T11:13:58;9.13;;;6.37;;
15398;SDS011;7797;51.428;6.756;2022-11-14T11:16:26;7.87;;;6.13;;
15398;SDS011;7797;51.428;6.756;2022-11-14T11:19:12;7.90;;;6.10;;
15398;SDS011;7797;51.428;6.756;2022-11-14T11:22:28;6.30;;;5.57;;
15398;SDS011;7797;51.428;6.756;2022-11-14T11:31:11;6.47;;;5.20;;
15398;SDS011;7797;51.428;6.756;2022-11-14T11:33:41;6.27;;;5.33;;
15398;SDS011;7797;51.428;6.756;2022-11-14T11:36:22;7.97;;;5.87;;
15398;SDS011;7797;51.428;6.756;2022-11-14T11:38:56;6.63;;;5.77;;
15398;SDS011;7797;51.428;6.756;2022-11-14T11:41:51;6.93;;;5.73;;
15398;SDS011;7797;51.428;6.756;2022-11-14T11:44:47;9.03;;;5.70;;
15398;SDS011;7797;51.428;6.756;2022-11-14T11:47:55;8.93;;;6.23;;
15398;SDS011;7797;51.428;6.756;2022-11-14T11:56:30;8.33;;;6.77;;
15398;SDS011;7797;51.428;6.756;2022-11-14T11:59:04;8.23;;;6.67;;
15398;SDS011;7797;51.428;6.756;2022-11-14T12:01:46;11.23;;;7.43;;
15398;SDS011;7797;51.428;6.756;2022-11-14T12:04:26;10.50;;;7.33;;
15398;SDS011;7797;51.428;6.756;2022-11-14T12:07:03;9.87;;;7.87;;
15398;SDS011;7797;51.428;6.756;2022-11-14T12:09:49;12.73;;;8.33;;
15398;SDS011;7797;51.428;6.756;2022-11-14T12:12:51;10.97;;;7.77;;
15398;SDS011;7797;51.428;6.756;2022-11-14T12:15:48;9.70;;;7.87;;
15398;SDS011;7797;51.428;6.756;2022-11-14T12:18:30;9.50;;;8.13;;
15398;SDS011;7797;51.428;6.756;2022-11-14T12:21:12;11.07;;;8.43;;
15398;SDS011;7797;51.428;6.756;2022-11-14T12:32:07;12.57;;;8.33;;
15398;SDS011;7797;51.428;6.756;2022-11-14T12:34:44;10.77;;;8.20;;
15398;SDS011;7797;51.428;6.756;2022-11-14T12:37:16;11.97;;;8.20;;
15398;SDS011;7797;51.428;6.756;2022-11-14T12:39:54;10.53;;;8.50;;
15398;SDS011;7797;51.428;6.756;2022-11-14T12:42:22;10.63;;;8.37;;
15398;SDS011;7797;51.428;6.756;2022-11-14T12:44:52;9.50;;;7.53;;
15398;SDS011;7797;51.428;6.756;2022-11-14T12:47:20;9.27;;;7.57;;
15398;SDS011;7797;51.428;6.756;2022-11-14T12:57:45;10.50;;;8.07;;
15398;SDS011;7797;51.428;6.756;2022-11-14T13:00:18;8.87;;;7.37;;
15398;SDS011;7797;51.428;6.756;2022-11-14T13:06:07;11.17;;;8.43;;
15398;SDS011;7797;51.428;6.756;2022-11-14T13:14:17;10.03;;;7.50;;
15398;SDS011;7797;51.428;6.756;2022-11-14T13:28:45;8.20;;;6.93;;
15398;SDS011;7797;51.428;6.756;2022-11-14T13:33:45;9.67;;;7.33;;
15398;SDS011;7797;51.428;6.756;2022-11-14T13:41:45;9.83;;;7.23;;
15398;SDS011;7797;51.428;6.756;2022-11-14T13:50:00;9.50;;;6.83;;
15398;SDS011;7797;51.428;6.756;2022-11-14T13:52:34;8.67;;;7.10;;
15398;SDS011;7797;51.428;6.756;2022-11-14T13:55:06;8.30;;;7.33;;
15398;SDS011;7797;51.428;6.756;2022-11-14T14:00:24;9.97;;;7.37;;
15398;SDS011;7797;51.428;6.756;2022-11-14T14:19:17;12.10;;;8.73;;
15398;SDS011;7797;51.428;6.756;2022-11-14T14:32:24;12.97;;;9.37;;
15398;SDS011;7797;51.428;6.756;2022-11-14T14:34:51;12.87;;;9.83;;
15398;SDS011;7797;51.428;6.756;2022-11-14T14:37:22;10.73;;;8.90;;
15398;SDS011;7797;51.428;6.756;2022-11-14T14:39:54;12.53;;;9.33;;
15398;SDS011;7797;51.428;6.756;2022-11-14T14:42:25;11.77;;;8.97;;
15398;SDS011;7797;51.428;6.756;2022-11-14T14:45:00;14.13;;;9.27;;
15398;SDS011;7797;51.428;6.756;2022-11-14T14:50:03;13.43;;;8.67;;
15398;SDS011;7797;51.428;6.756;2022-11-14T14:55:02;10.33;;;8.67;;
15398;SDS011;7797;51.428;6.756;2022-11-14T14:57:31;10.83;;;9.00;;
15398;SDS011;7797;51.428;6.756;2022-11-14T15:00:05;12.17;;;8.60;;
15398;SDS011;7797;51.428;6.756;2022-11-14T15:02:36;12.87;;;9.57;;
15398;SDS011;7797;51.428;6.756;2022-11-14T15:05:20;12.10;;;9.53;;
15398;SDS011;7797;51.428;6.756;2022-11-14T15:07:51;11.30;;;8.80;;
15398;SDS011;7797;51.428;6.756;2022-11-14T15:10:22;10.40;;;8.63;;
15398;SDS011;7797;51.428;6.756;2022-11-14T15:12:51;12.70;;;9.23;;
15398;SDS011;7797;51.428;6.756;2022-11-14T15:15:19;12.03;;;9.20;;
15398;SDS011;7797;51.428;6.756;2022-11-14T15:17:49;12.07;;;8.80;;
15398;SDS011;7797;51.428;6.756;2022-11-14T15:20:22;12.90;;;8.70;;
15398;SDS011;7797;51.428;6.756;2022-11-14T15:23:05;10.43;;;8.30;;
15398;SDS011;7797;51.428;6.756;2022-11-14T15:25:43;9.77;;;8.33;;
15398;SDS011;7797;51.428;6.756;2022-11-14T15:28:12;11.20;;;9.20;;
15398;SDS011;7797;51.428;6.756;2022-11-14T15:30:57;11.83;;;8.30;;
15398;SDS011;7797;51.428;6.756;2022-11-14T15:33:26;12.50;;;9.57;;
15398;SDS011;7797;51.428;6.756;2022-11-14T15:36:07;12.07;;;8.90;;
15398;SDS011;7797;51.428;6.756;2022-11-14T15:38:35;14.07;;;9.40;;
15398;SDS011;7797;51.428;6.756;2022-11-14T15:41:22;12.10;;;9.10;;
15398;SDS011;7797;51.428;6.756;2022-11-14T15:43:51;11.30;;;8.93;;
15398;SDS011;7797;51.428;6.756;2022-11-14T15:46:28;12.30;;;9.07;;
15398;SDS011;7797;51.428;6.756;2022-11-14T15:49:29;13.70;;;9.60;;
15398;SDS011;7797;51.428;6.756;2022-11-14T15:51:56;12.37;;;9.03;;
15398;SDS011;7797;51.428;6.756;2022-11-14T15:54:31;11.33;;;9.20;;
15398;SDS011;7797;51.428;6.756;2022-11-14T15:57:11;12.83;;;9.10;;
15398;SDS011;7797;51.428;6.756;2022-11-14T15:59:39;12.77;;;9.57;;
15398;SDS011;7797;51.428;6.756;2022-11-14T16:02:10;15.67;;;10.73;;
15398;SDS011;7797;51.428;6.756;2022-11-14T16:04:40;14.60;;;9.10;;
15398;SDS011;7797;51.428;6.756;2022-11-14T16:07:13;13.57;;;9.30;;
15398;SDS011;7797;51.428;6.756;2022-11-14T16:09:41;12.40;;;9.07;;
15398;SDS011;7797;51.428;6.756;2022-11-14T16:12:08;10.43;;;8.93;;
15398;SDS011;7797;51.428;6.756;2022-11-14T16:14:35;11.33;;;9.07;;
15398;SDS011;7797;51.428;6.756;2022-11-14T16:17:01;12.83;;;9.83;;
15398;SDS011;7797;51.428;6.756;2022-11-14T16:19:28;11.87;;;9.00;;
15398;SDS011;7797;51.428;6.756;2022-11-14T16:22:01;11.97;;;9.53;;
15398;SDS011;7797;51.428;6.756;2022-11-14T16:24:30;13.17;;;9.60;;
15398;SDS011;7797;51.428;6.756;2022-11-14T16:26:59;12.13;;;9.73;;
15398;SDS011;7797;51.428;6.756;2022-11-14T16:29:26;13.67;;;9.23;;
15398;SDS011;7797;51.428;6.756;2022-11-14T16:31:53;12.63;;;9.33;;
15398;SDS011;7797;51.428;6.756;2022-11-14T16:34:25;14.10;;;9.37;;
15398;SDS011;7797;51.428;6.756;2022-11-14T16:36:55;12.23;;;9.57;;
15398;SDS011;7797;51.428;6.756;2022-11-14T16:39:23;13.23;;;9.40;;
15398;SDS011;7797;51.428;6.756;2022-11-14T16:41:50;11.17;;;9.30;;
15398;SDS011;7797;51.428;6.756;2022-11-14T16:44:16;12.63;;;9.27;;
15398;SDS011;7797;51.428;6.756;2022-11-14T16:46:44;13.33;;;9.97;;
15398;SDS011;7797;51.428;6.756;2022-11-14T16:49:14;13.33;;;9.50;;
15398;SDS011;7797;51.428;6.756;2022-11-14T16:51:42;13.10;;;9.50;;
15398;SDS011;7797;51.428;6.756;2022-11-14T16:54:15;13.53;;;9.57;;
15398;SDS011;7797;51.428;6.756;2022-11-14T16:56:43;14.63;;;9.40;;
15398;SDS011;7797;51.428;6.756;2022-11-14T16:59:10;13.67;;;9.93;;
15398;SDS011;7797;51.428;6.756;2022-11-14T17:01:37;14.13;;;9.57;;
15398;SDS011;7797;51.428;6.756;2022-11-14T17:04:04;12.17;;;9.23;;
15398;SDS011;7797;51.428;6.756;2022-11-14T17:06:31;12.97;;;10.00;;
15398;SDS011;7797;51.428;6.756;2022-11-14T17:08:58;12.53;;;9.43;;
15398;SDS011;7797;51.428;6.756;2022-11-14T17:11:25;11.17;;;9.33;;
15398;SDS011;7797;51.428;6.756;2022-11-14T17:13:53;13.80;;;10.10;;
15398;SDS011;7797;51.428;6.756;2022-11-14T17:16:20;12.33;;;9.53;;
15398;SDS011;7797;51.428;6.756;2022-11-14T17:18:51;12.83;;;10.03;;
15398;SDS011;7797;51.428;6.756;2022-11-14T17:21:19;12.33;;;9.50;;
15398;SDS011;7797;51.428;6.756;2022-11-14T17:23:51;13.00;;;9.10;;
15398;SDS011;7797;51.428;6.756;2022-11-14T17:26:19;12.67;;;9.60;;
15398;SDS011;7797;51.428;6.756;2022-11-14T17:28:45;12.07;;;9.70;;